Time;durP1;ratioP1;P1;durP2;ratioP2;P2;SDS_P1;SDS_P2;PMS_P1;PMS_P2;Temp;Humidity;BMP_temperature;BMP_pressure;BME280_temperature;BME280_humidity;BME280_pressure;Samples;Min_cycle;Max_cycle;Signal;HPM_P1;HPM_P2
2022/04/02 00:01:39;;;;;;;6.22;2.10;;;-0.20;99.90;;;;;;5049663;28;20052;-78
2022/04/02 00:04:06;;;;;;;7.75;2.17;;;-0.30;99.90;;;;;;5049623;28;20048;-71
2022/04/02 00:06:32;;;;;;;5.57;2.17;;;-0.30;99.90;;;;;;5031600;28;20439;-71
2022/04/02 00:08:57;;;;;;;5.78;2.85;;;-0.30;99.90;;;;;;5049044;28;20103;-71
2022/04/02 00:11:23;;;;;;;6.57;2.30;;;-0.30;99.90;;;;;;5049287;28;20151;-72
2022/04/02 00:13:49;;;;;;;6.43;2.15;;;-0.30;99.90;;;;;;5049728;28;20399;-71
2022/04/02 00:16:14;;;;;;;4.28;2.10;;;-0.30;99.90;;;;;;5049696;28;20091;-72
2022/04/02 00:18:42;;;;;;;4.90;2.40;;;-0.30;99.90;;;;;;5031110;28;20121;-71
2022/04/02 00:21:08;;;;;;;8.30;2.20;;;-0.30;99.90;;;;;;5014470;28;20083;-72
2022/04/02 00:23:40;;;;;;;6.72;2.53;;;-0.30;99.90;;;;;;5049031;28;20133;-76
2022/04/02 00:26:15;;;;;;;5.60;2.20;;;-0.30;99.90;;;;;;5031392;28;20434;-72
2022/04/02 00:28:42;;;;;;;;;;;-0.30;99.90;;;;;;5016044;28;20732;-79
2022/04/02 00:31:09;;;;;;;4.88;2.17;;;-0.30;99.90;;;;;;5049728;28;20019;-73
2022/04/02 00:33:35;;;;;;;11.38;2.55;;;-0.30;99.90;;;;;;5049359;28;20503;-72
2022/04/02 00:36:01;;;;;;;6.30;2.20;;;-0.30;99.90;;;;;;5048593;28;20132;-70
2022/04/02 00:38:27;;;;;;;5.65;2.28;;;-0.20;99.90;;;;;;5031581;28;20045;-75
2022/04/02 00:40:53;;;;;;;5.63;2.42;;;-0.30;99.90;;;;;;5049552;28;20063;-74
2022/04/02 00:43:26;;;;;;;6.13;2.35;;;-0.30;99.90;;;;;;5049783;28;20052;-72
2022/04/02 00:45:53;;;;;;;4.47;2.08;;;-0.30;99.90;;;;;;5049010;28;20049;-73
2022/04/02 00:48:19;;;;;;;4.28;2.30;;;-0.30;99.90;;;;;;5049369;28;20490;-71
2022/04/02 00:50:47;;;;;;;5.95;2.20;;;-0.30;99.90;;;;;;5049243;28;20044;-71
2022/04/02 00:53:14;;;;;;;6.03;2.30;;;-0.30;99.90;;;;;;5048766;28;20056;-71
2022/04/02 00:55:42;;;;;;;4.13;2.30;;;-0.30;99.90;;;;;;5048557;28;20061;-71
2022/04/02 00:58:11;;;;;;;7.88;2.35;;;-0.30;99.90;;;;;;5014832;28;20546;-73
2022/04/02 01:00:37;;;;;;;4.63;2.35;;;-0.30;99.90;;;;;;5049412;28;20174;-71
2022/04/02 01:03:03;;;;;;;4.30;2.15;;;-0.40;99.90;;;;;;5049391;28;20186;-77
2022/04/02 01:05:29;;;;;;;4.35;1.92;;;-0.30;99.90;;;;;;5049238;28;20119;-72
2022/04/02 01:07:55;;;;;;;4.80;1.98;;;-0.40;99.90;;;;;;5030235;28;20045;-71
2022/04/02 01:10:23;;;;;;;5.28;2.40;;;-0.50;99.90;;;;;;5048797;28;20049;-71
2022/04/02 01:12:49;;;;;;;3.33;1.88;;;-0.50;99.90;;;;;;5049049;28;20080;-73
2022/04/02 01:15:14;;;;;;;9.02;2.47;;;-0.50;99.90;;;;;;5049200;28;20509;-71
2022/04/02 01:17:40;;;;;;;6.20;2.30;;;-0.60;99.90;;;;;;5048510;28;20048;-71
2022/04/02 01:20:10;;;;;;;5.63;2.20;;;-0.60;99.90;;;;;;5048652;28;20563;-70
2022/04/02 01:22:36;;;;;;;4.95;1.73;;;-0.60;99.90;;;;;;5050905;28;20059;-70
2022/04/02 01:25:05;;;;;;;5.43;2.13;;;-0.60;99.90;;;;;;5052233;28;20600;-77
2022/04/02 01:27:30;;;;;;;5.43;2.25;;;-0.60;99.90;;;;;;5052187;28;20077;-70
2022/04/02 01:29:56;;;;;;;4.22;2.10;;;-0.70;99.90;;;;;;5052212;28;20154;-73
2022/04/02 01:32:22;;;;;;;6.63;2.20;;;-0.70;99.90;;;;;;5052324;28;20048;-71
2022/04/02 01:34:48;;;;;;;8.13;2.78;;;-0.70;99.90;;;;;;5052428;28;20507;-73
2022/04/02 01:37:15;;;;;;;5.22;2.38;;;-0.70;99.90;;;;;;5034764;28;20056;-75
2022/04/02 01:39:42;;;;;;;4.82;2.42;;;-0.80;99.90;;;;;;5051337;28;20048;-75
2022/04/02 01:42:08;;;;;;;6.78;2.40;;;-0.80;99.90;;;;;;5034394;28;20056;-71
2022/04/02 01:44:33;;;;;;;9.45;2.53;;;-0.80;99.90;;;;;;5052049;28;20488;-72
2022/04/02 01:46:59;;;;;;;7.15;2.20;;;-0.80;99.90;;;;;;5034044;28;20049;-72
2022/04/02 01:49:25;;;;;;;5.35;2.38;;;-0.80;99.90;;;;;;5051547;28;20044;-73
2022/04/02 01:51:51;;;;;;;6.30;2.67;;;-0.90;99.90;;;;;;5051716;28;20048;-71
2022/04/02 01:54:19;;;;;;;7.97;2.75;;;-0.90;99.90;;;;;;5033109;28;20049;-72
2022/04/02 01:56:45;;;;;;;5.95;2.50;;;-0.90;99.90;;;;;;5052069;28;20049;-73
2022/04/02 01:59:11;;;;;;;6.78;2.65;;;-0.90;99.90;;;;;;5033857;28;20401;-71
2022/04/02 02:01:37;;;;;;;5.47;2.55;;;-0.90;99.90;;;;;;5050527;28;20461;-71
2022/04/02 02:04:03;;;;;;;7.72;2.67;;;-1.00;99.90;;;;;;5051058;28;20041;-71
2022/04/02 02:06:29;;;;;;;7.93;2.45;;;-1.00;99.90;;;;;;5051621;28;20455;-70
2022/04/02 02:08:55;;;;;;;5.25;2.30;;;-1.00;99.90;;;;;;5051396;28;20045;-70
2022/04/02 02:11:21;;;;;;;5.45;2.10;;;-1.00;99.90;;;;;;5051112;28;20045;-72
2022/04/02 02:13:47;;;;;;;5.22;2.60;;;-1.00;99.90;;;;;;5051678;28;20045;-77
2022/04/02 02:16:13;;;;;;;11.05;2.95;;;-1.00;99.90;;;;;;5051448;28;20566;-71
2022/04/02 02:18:38;;;;;;;7.32;2.78;;;-1.10;99.90;;;;;;5050349;28;20045;-70
2022/04/02 02:21:04;;;;;;;5.55;2.58;;;-1.10;99.90;;;;;;5050307;28;20094;-71
2022/04/02 02:23:30;;;;;;;6.20;2.75;;;-1.10;99.90;;;;;;5050218;28;20079;-71
2022/04/02 02:25:55;;;;;;;4.88;2.35;;;-1.10;99.90;;;;;;5050532;28;20682;-72
2022/04/02 02:28:22;;;;;;;9.13;2.42;;;-1.20;99.90;;;;;;5051402;28;20076;-71
2022/04/02 02:30:47;;;;;;;6.15;2.60;;;-1.20;99.90;;;;;;5015986;28;20061;-72
2022/04/02 02:35:57;;;;;;;5.13;2.17;;;-1.20;99.90;;;;;;5032649;28;20053;-70
2022/04/02 02:38:23;;;;;;;10.20;3.17;;;-1.30;99.90;;;;;;5050959;28;20048;-71
2022/04/02 02:40:50;;;;;;;6.68;2.65;;;-1.30;99.90;;;;;;5050646;28;20040;-72
2022/04/02 02:43:17;;;;;;;4.93;2.55;;;-1.30;99.90;;;;;;5050994;28;20476;-81
2022/04/02 02:45:43;;;;;;;7.05;2.53;;;-1.30;99.90;;;;;;5050931;28;20484;-70
2022/04/02 02:48:09;;;;;;;7.47;2.20;;;-1.30;99.90;;;;;;5050313;28;20041;-69
2022/04/02 02:50:35;;;;;;;5.63;2.20;;;-1.40;99.90;;;;;;5032744;28;20102;-70
2022/04/02 02:53:02;;;;;;;7.57;2.35;;;-1.40;99.90;;;;;;5050636;28;20049;-70
2022/04/02 02:55:31;;;;;;;7.75;2.80;;;-1.40;99.90;;;;;;5049981;28;20053;-70
2022/04/02 02:57:56;;;;;;;7.03;2.47;;;-1.50;99.90;;;;;;5050384;28;20048;-69
2022/04/02 03:00:22;;;;;;;12.02;3.05;;;-1.50;99.90;;;;;;5032957;28;20064;-71
2022/04/02 03:02:48;;;;;;;6.47;2.78;;;-1.50;99.90;;;;;;5050837;28;20041;-70
2022/04/02 03:05:15;;;;;;;6.10;2.40;;;-1.60;99.90;;;;;;5032757;28;20057;-70
2022/04/02 03:07:49;;;;;;;11.43;2.85;;;-1.60;99.90;;;;;;5032124;28;20060;-74
2022/04/02 03:10:22;;;;;;;5.00;2.27;;;-1.60;99.90;;;;;;5050291;28;20115;-70
2022/04/02 03:12:50;;;;;;;7.15;2.15;;;-1.60;99.90;;;;;;5050174;28;20088;-69
2022/04/02 03:15:16;;;;;;;6.93;3.27;;;-1.70;99.90;;;;;;5032604;28;20052;-69
2022/04/02 03:17:43;;;;;;;7.25;2.80;;;-1.70;99.90;;;;;;5049743;28;20045;-70
2022/04/02 03:20:11;;;;;;;7.05;2.65;;;-1.70;99.90;;;;;;5049663;28;20056;-69
2022/04/02 03:22:43;;;;;;;7.23;2.73;;;-1.70;99.90;;;;;;5032174;28;20060;-70
2022/04/02 03:25:17;;;;;;;7.00;2.77;;;-1.70;99.90;;;;;;5050445;28;20049;-70
2022/04/02 03:27:44;;;;;;;5.13;2.35;;;-1.70;99.90;;;;;;5049724;28;20049;-71
2022/04/02 03:30:12;;;;;;;7.60;2.33;;;-1.80;99.90;;;;;;5050066;28;20036;-69
2022/04/02 03:32:39;;;;;;;8.63;2.67;;;-1.80;99.90;;;;;;5050119;28;20400;-69
2022/04/02 03:35:06;;;;;;;6.00;2.47;;;-1.80;99.90;;;;;;5032037;28;20099;-70
2022/04/02 03:37:36;;;;;;;6.47;2.53;;;-1.80;99.90;;;;;;5049869;28;20052;-70
2022/04/02 03:40:09;;;;;;;7.17;2.80;;;-1.80;99.90;;;;;;5050302;28;20213;-71
2022/04/02 03:42:38;;;;;;;5.27;2.47;;;-1.90;99.90;;;;;;5032016;28;20124;-69
2022/04/02 03:45:05;;;;;;;5.93;2.50;;;-1.90;99.90;;;;;;5049004;28;20048;-68
2022/04/02 03:47:32;;;;;;;5.47;2.57;;;-1.90;99.90;;;;;;5050282;28;20045;-74
2022/04/02 03:49:58;;;;;;;6.13;2.30;;;-1.90;99.90;;;;;;5031935;28;20041;-74
2022/04/02 03:52:24;;;;;;;4.83;2.43;;;-1.90;99.90;;;;;;5050106;28;20135;-70
2022/04/02 03:54:50;;;;;;;5.60;2.50;;;-2.00;99.90;;;;;;5050023;28;20092;-76
2022/04/02 03:57:16;;;;;;;5.03;2.07;;;-1.90;99.90;;;;;;5050236;28;20464;-71
2022/04/02 03:59:43;;;;;;;7.20;1.90;;;-2.00;99.90;;;;;;5049076;28;20051;-69
2022/04/02 04:02:09;;;;;;;5.43;1.90;;;-1.90;99.90;;;;;;5049466;28;20488;-70
2022/04/02 04:04:38;;;;;;;7.53;1.97;;;-1.90;99.90;;;;;;5048899;28;20057;-69
2022/04/02 04:07:04;;;;;;;9.37;1.77;;;-1.90;99.90;;;;;;5031761;28;20561;-73
2022/04/02 04:09:30;;;;;;;5.53;2.03;;;-1.90;99.90;;;;;;5031103;28;20095;-69
2022/04/02 04:11:56;;;;;;;4.07;1.63;;;-1.90;99.90;;;;;;5031314;28;20041;-72
2022/04/02 04:14:25;;;;;;;4.47;1.63;;;-1.90;99.90;;;;;;5049349;28;20603;-69
2022/04/02 04:16:53;;;;;;;5.53;1.60;;;-1.80;99.90;;;;;;5031381;28;20081;-70
2022/04/02 04:19:19;;;;;;;6.00;1.80;;;-1.90;99.90;;;;;;5031331;28;20049;-77
2022/04/02 04:21:46;;;;;;;8.67;1.60;;;-1.80;99.90;;;;;;5049085;28;20048;-70
2022/04/02 04:24:14;;;;;;;5.90;1.50;;;-1.80;99.90;;;;;;5049203;28;20132;-69
2022/04/02 04:26:41;;;;;;;6.43;1.27;;;-1.80;99.90;;;;;;5049335;28;20057;-70
2022/04/02 04:29:07;;;;;;;3.33;1.47;;;-1.70;99.90;;;;;;5049296;28;20045;-72
2022/04/02 04:31:33;;;;;;;3.80;1.40;;;-1.70;99.90;;;;;;5048443;28;20045;-74
2022/04/02 04:33:58;;;;;;;8.52;1.48;;;-1.70;99.90;;;;;;5049147;28;20126;-71
2022/04/02 04:36:24;;;;;;;4.57;1.47;;;-1.70;99.90;;;;;;5031066;28;20119;-72
2022/04/02 04:38:51;;;;;;;4.00;2.00;;;-1.70;99.90;;;;;;5049125;28;20048;-71
2022/04/02 04:41:17;;;;;;;6.37;1.67;;;-1.60;99.90;;;;;;5049241;28;20480;-70
2022/04/02 04:43:46;;;;;;;11.43;2.07;;;-1.60;99.90;;;;;;5049362;28;20411;-70
2022/04/02 04:46:12;;;;;;;3.67;1.30;;;-1.60;99.90;;;;;;5030850;28;20286;-74
2022/04/02 04:48:37;;;;;;;5.50;1.40;;;-1.60;99.90;;;;;;5030986;28;20184;-76
2022/04/02 04:51:04;;;;;;;3.33;1.10;;;-1.60;99.90;;;;;;5049184;28;20041;-71
2022/04/02 04:53:31;;;;;;;6.23;2.00;;;-1.60;99.90;;;;;;5030664;28;20048;-72
2022/04/02 04:55:57;;;;;;;5.38;1.40;;;-1.60;99.90;;;;;;5028880;28;20503;-74
2022/04/02 04:58:23;;;;;;;3.97;1.40;;;-1.50;99.90;;;;;;5032540;28;20072;-77
2022/04/02 05:00:49;;;;;;;7.87;1.77;;;-1.50;99.90;;;;;;5032861;28;20042;-72
2022/04/02 05:03:14;;;;;;;3.33;1.13;;;-1.40;99.90;;;;;;5014779;28;20081;-75
2022/04/02 05:05:40;;;;;;;8.70;1.67;;;-1.40;99.90;;;;;;5032667;28;20052;-74
2022/04/02 05:08:07;;;;;;;3.47;1.60;;;-1.30;99.90;;;;;;5013934;28;20061;-71
2022/04/02 05:10:33;;;;;;;6.43;1.80;;;-1.10;99.90;;;;;;5033078;28;20041;-72
2022/04/02 05:13:01;;;;;;;3.03;1.37;;;-1.00;99.90;;;;;;5032760;28;20511;-71
2022/04/02 05:15:26;;;;;;;6.63;1.80;;;-0.80;99.90;;;;;;5014699;28;20049;-75
2022/04/02 05:17:53;;;;;;;4.70;1.60;;;-0.70;99.90;;;;;;5014590;28;20065;-73
2022/04/02 05:20:19;;;;;;;4.63;1.90;;;-0.60;99.90;;;;;;5032054;28;20120;-74
2022/04/02 05:22:44;;;;;;;8.83;1.77;;;-0.60;99.90;;;;;;5032688;28;20171;-72
2022/04/02 05:25:14;;;;;;;5.07;1.92;;;-0.50;99.90;;;;;;5032570;28;20052;-74
2022/04/02 05:27:41;;;;;;;4.30;1.77;;;-0.40;99.90;;;;;;4998532;28;20053;-72
2022/04/02 05:30:07;;;;;;;9.23;2.13;;;-0.40;99.90;;;;;;5014147;28;20489;-72
2022/04/02 05:32:33;;;;;;;5.65;1.90;;;-0.40;99.90;;;;;;5031820;28;20523;-77
2022/04/02 05:34:59;;;;;;;5.45;1.70;;;-0.40;99.90;;;;;;5014332;28;20045;-74
2022/04/02 05:37:25;;;;;;;5.00;1.83;;;-0.40;99.90;;;;;;5032089;28;20507;-75
2022/04/02 05:39:51;;;;;;;5.63;1.90;;;-0.30;99.90;;;;;;5031925;28;20516;-80
2022/04/02 05:42:17;;;;;;;7.38;1.80;;;-0.30;99.90;;;;;;5032497;28;20121;-77
2022/04/02 05:44:43;;;;;;;6.30;1.95;;;-0.30;99.90;;;;;;5031419;28;20054;-74
2022/04/02 05:47:09;;;;;;;7.00;2.17;;;-0.20;99.90;;;;;;5031677;28;20052;-72
2022/04/02 05:49:36;;;;;;;6.45;1.92;;;-0.20;99.90;;;;;;5031545;28;20184;-74
2022/04/02 05:52:03;;;;;;;5.75;1.90;;;-0.10;99.90;;;;;;5031616;28;20138;-71
2022/04/02 05:54:29;;;;;;;5.53;1.95;;;-0.10;99.90;;;;;;5039664;28;20057;-75
2022/04/02 05:56:55;;;;;;;8.45;2.03;;;0.00;99.90;;;;;;5033447;28;20053;-78
2022/04/02 05:59:21;;;;;;;4.28;2.08;;;0.00;99.90;;;;;;5051474;28;20045;-74
2022/04/02 06:01:47;;;;;;;6.18;1.75;;;0.10;99.90;;;;;;5051704;28;20431;-74
2022/04/02 06:04:13;;;;;;;6.40;1.90;;;0.10;99.90;;;;;;5033352;28;20425;-79
2022/04/02 06:06:39;;;;;;;7.10;2.28;;;0.20;99.90;;;;;;5051494;28;20041;-74
2022/04/02 06:09:05;;;;;;;14.85;2.50;;;0.30;99.90;;;;;;5050858;28;20137;-72
2022/04/02 06:11:31;;;;;;;6.53;2.28;;;0.30;99.90;;;;;;5051516;28;20059;-76
2022/04/02 06:14:00;;;;;;;10.30;2.25;;;0.40;99.90;;;;;;5051081;28;20482;-73
2022/04/02 06:16:26;;;;;;;9.02;2.05;;;0.50;99.90;;;;;;5051511;28;20084;-77
2022/04/02 06:18:52;;;;;;;3.95;1.80;;;0.60;99.90;;;;;;5050968;28;20385;-76
2022/04/02 06:21:19;;;;;;;5.68;1.90;;;0.60;99.90;;;;;;5050900;28;20053;-72
2022/04/02 06:23:45;;;;;;;6.70;1.85;;;0.70;99.90;;;;;;5051202;28;20044;-74
2022/04/02 06:26:11;;;;;;;6.68;2.33;;;0.80;99.90;;;;;;5033650;28;20387;-78
2022/04/02 06:28:37;;;;;;;5.95;1.92;;;0.80;99.90;;;;;;5051182;28;20052;-70
2022/04/02 06:31:04;;;;;;;8.70;2.00;;;0.90;99.90;;;;;;5050693;28;20118;-73
2022/04/02 06:33:32;;;;;;;4.75;2.42;;;0.90;99.90;;;;;;5051073;28;20045;-72
2022/04/02 06:35:57;;;;;;;5.07;2.28;;;1.00;99.90;;;;;;5050251;28;20729;-70
2022/04/02 06:38:23;;;;;;;4.78;1.85;;;1.00;99.90;;;;;;5051105;28;20114;-74
2022/04/02 06:40:48;;;;;;;7.25;2.33;;;1.00;99.90;;;;;;5050797;28;20047;-73
2022/04/02 06:43:14;;;;;;;6.72;2.47;;;1.10;99.90;;;;;;5051236;28;20090;-74
2022/04/02 06:45:40;;;;;;;7.18;2.20;;;1.20;99.90;;;;;;5050731;28;20041;-74
2022/04/02 06:48:05;;;;;;;6.88;2.35;;;1.20;99.90;;;;;;5032913;28;20088;-81
2022/04/02 06:50:31;;;;;;;5.80;2.17;;;1.30;99.90;;;;;;5014812;28;20136;-76
2022/04/02 06:52:57;;;;;;;5.72;2.38;;;1.40;99.90;;;;;;5050476;28;20048;-75
2022/04/02 06:55:23;;;;;;;5.57;2.20;;;1.50;99.90;;;;;;5032294;28;20060;-72
2022/04/02 06:57:52;;;;;;;7.15;1.90;;;1.50;99.90;;;;;;5050699;28;20088;-74
2022/04/02 07:00:19;;;;;;;8.55;2.22;;;1.50;99.90;;;;;;5032371;28;20056;-77
2022/04/02 07:02:44;;;;;;;7.03;2.05;;;1.60;99.90;;;;;;5032314;28;20056;-74
2022/04/02 07:05:10;;;;;;;5.43;1.92;;;1.60;99.90;;;;;;5050412;28;20053;-74
2022/04/02 07:07:36;;;;;;;3.97;1.90;;;1.70;99.90;;;;;;5050492;28;20045;-73
2022/04/02 07:10:04;;;;;;;4.25;1.55;;;1.80;99.90;;;;;;5050358;28;20044;-74
2022/04/02 07:12:31;;;;;;;3.60;1.70;;;1.90;99.90;;;;;;5049965;28;20135;-75
2022/04/02 07:14:57;;;;;;;7.30;1.90;;;2.00;99.90;;;;;;5050531;28;20404;-79
2022/04/02 07:17:23;;;;;;;3.38;1.80;;;2.00;99.90;;;;;;5050620;28;20059;-74
2022/04/02 07:19:50;;;;;;;8.90;1.88;;;2.90;99.90;;;;;;5049595;28;20096;-73
2022/04/02 07:22:18;;;;;;;6.90;2.30;;;3.00;99.90;;;;;;5049571;28;20045;-82
2022/04/02 07:24:55;;;;;;;4.50;2.05;;;2.20;99.90;;;;;;5032564;28;20053;-80
2022/04/02 07:27:27;;;;;;;6.40;1.80;;;2.20;99.90;;;;;;5049918;28;20454;-85
2022/04/02 07:29:54;;;;;;;3.55;1.83;;;2.20;99.90;;;;;;5050208;28;20052;-81
2022/04/02 07:32:21;;;;;;;9.55;2.22;;;2.20;99.90;;;;;;5049845;28;20081;-78
2022/04/02 07:34:47;;;;;;;13.85;2.15;;;2.20;99.90;;;;;;5049991;28;20045;-84
2022/04/02 07:37:41;;;;;;;6.78;1.95;;;2.10;99.90;;;;;;5049746;28;20044;-83
2022/04/02 07:40:08;;;;;;;9.43;2.50;;;1.90;99.90;;;;;;5049809;28;20070;-79
2022/04/02 07:42:37;;;;;;;4.25;1.88;;;1.90;99.90;;;;;;5049711;28;20052;-82
2022/04/02 07:45:13;;;;;;;9.57;2.05;;;1.80;99.90;;;;;;5049811;28;20045;-72
2022/04/02 07:47:48;;;;;;;4.35;1.80;;;1.70;99.90;;;;;;5049993;28;20056;-75
2022/04/02 07:50:16;;;;;;;4.50;1.90;;;1.80;99.90;;;;;;5049480;28;20404;-72
2022/04/02 07:52:44;;;;;;;3.97;1.55;;;1.70;99.90;;;;;;5049243;28;20539;-74
2022/04/02 07:55:12;;;;;;;3.42;1.60;;;1.70;99.90;;;;;;5049368;28;20151;-74
2022/04/02 07:57:40;;;;;;;4.03;1.33;;;1.70;99.90;;;;;;5048980;28;20128;-72
2022/04/02 08:00:10;;;;;;;5.78;1.60;;;2.70;99.90;;;;;;5038647;28;20048;-75
2022/04/02 08:02:38;;;;;;;3.50;1.60;;;1.90;99.90;;;;;;5049761;28;20045;-78
2022/04/02 08:05:07;;;;;;;3.70;1.50;;;2.00;99.90;;;;;;5049377;28;20052;-71
2022/04/02 08:07:34;;;;;;;3.97;1.48;;;2.00;99.90;;;;;;5049609;28;20049;-73
2022/04/02 08:10:02;;;;;;;4.13;1.38;;;2.10;99.90;;;;;;5049141;28;20056;-73
2022/04/02 08:12:29;;;;;;;3.35;1.38;;;2.10;99.90;;;;;;5049312;28;20049;-71
2022/04/02 08:14:54;;;;;;;4.25;1.60;;;2.20;99.90;;;;;;5048839;28;20392;-73
2022/04/02 08:17:21;;;;;;;5.78;1.77;;;2.90;99.90;;;;;;5049439;28;20060;-71
2022/04/02 08:19:51;;;;;;;4.25;1.63;;;3.20;99.90;;;;;;5049507;28;20037;-73
2022/04/02 08:22:17;;;;;;;5.15;1.52;;;3.70;99.90;;;;;;5049210;28;20047;-72
2022/04/02 08:24:44;;;;;;;5.25;1.80;;;3.80;99.90;;;;;;5049017;28;20049;-76
2022/04/02 08:27:49;;;;;;;3.90;1.60;;;3.00;99.90;;;;;;5048587;28;20124;-75
2022/04/02 08:30:24;;;;;;;3.40;1.00;;;4.00;99.90;;;;;;4948969;28;20153;-75
2022/04/02 08:32:55;;;;;;;5.60;1.63;;;4.00;99.90;;;;;;4974814;28;20066;-74
2022/04/02 08:35:36;;;;;;;9.43;1.50;;;4.10;99.90;;;;;;4991874;28;20058;-74
2022/04/02 08:38:28;;;;;;;5.47;1.00;;;4.40;99.90;;;;;;4981656;28;20076;-75
2022/04/02 08:40:53;;;;;;;2.95;1.13;;;4.60;99.90;;;;;;4971023;28;20051;-74
2022/04/02 08:43:46;;;;;;;4.97;1.50;;;5.50;99.90;;;;;;4973847;28;20594;-76
2022/04/02 08:46:34;;;;;;;9.52;1.13;;;4.90;99.90;;;;;;4972034;28;20054;-74
2022/04/02 08:49:18;;;;;;;4.72;1.13;;;5.10;99.90;;;;;;4988005;28;20446;-76
2022/04/02 08:51:57;;;;;;;4.17;1.20;;;5.40;99.90;;;;;;4971879;28;20101;-77
2022/04/02 08:54:26;;;;;;;3.58;1.10;;;5.50;99.90;;;;;;4971752;28;20552;-81
2022/04/02 08:57:11;;;;;;;3.15;1.13;;;5.80;99.90;;;;;;4971317;28;20047;-73
2022/04/02 08:59:39;;;;;;;6.32;1.13;;;6.80;99.90;;;;;;4971599;28;20059;-73
2022/04/02 09:02:32;;;;;;;9.32;1.58;;;5.90;99.90;;;;;;4971782;28;20093;-74
2022/04/02 09:05:14;;;;;;;7.22;1.30;;;5.90;99.90;;;;;;4978362;28;20058;-73
2022/04/02 09:08:07;;;;;;;3.42;1.00;;;6.10;99.90;;;;;;5053260;28;20040;-73
2022/04/02 09:10:33;;;;;;;3.90;1.17;;;6.30;99.90;;;;;;5052977;28;20193;-80
2022/04/02 09:13:36;;;;;;;4.07;1.30;;;7.50;99.90;;;;;;5052915;28;20504;-73
2022/04/02 09:16:06;;;;;;;5.20;0.95;;;7.10;99.90;;;;;;5052486;28;20504;-74
2022/04/02 09:19:17;;;;;;;7.15;1.35;;;7.50;99.90;;;;;;5034859;28;20053;-76
2022/04/02 09:21:57;;;;;;;7.22;1.15;;;7.60;99.90;;;;;;4971289;28;20834;-74
2022/04/02 09:24:35;;;;;;;7.47;1.20;;;8.60;99.90;;;;;;4971843;28;21020;-77
2022/04/02 09:27:38;;;;;;;4.32;1.15;;;8.30;99.90;;;;;;4970941;28;20059;-72
2022/04/02 09:30:25;;;;;;;1.58;0.90;;;7.80;99.90;;;;;;4955655;28;20047;-76
2022/04/02 09:33:04;;;;;;;5.90;1.05;;;7.70;99.90;;;;;;4971176;28;20050;-73
2022/04/02 09:35:50;;;;;;;2.75;1.02;;;7.20;99.90;;;;;;4971473;28;20047;-73
2022/04/02 09:38:30;;;;;;;3.97;1.10;;;7.00;99.90;;;;;;4955012;28;20586;-74
2022/04/02 09:41:30;;;;;;;3.10;1.20;;;7.10;99.90;;;;;;4971172;28;20129;-78
2022/04/02 09:44:32;;;;;;;4.50;0.98;;;7.40;99.80;;;;;;4924117;29;20472;-73
2022/04/02 09:47:05;;;;;;;2.10;1.00;;;7.60;98.30;;;;;;4913210;29;20048;-77
2022/04/02 09:49:47;;;;;;;6.78;0.93;;;8.30;99.90;;;;;;4913549;29;20250;-74
2022/04/02 09:52:22;;;;;;;2.42;0.80;;;8.10;99.90;;;;;;4913294;29;20064;-76
2022/04/02 09:55:14;;;;;;;5.13;1.08;;;8.00;99.90;;;;;;4921449;29;20052;-80
2022/04/02 09:58:07;;;;;;;4.43;1.75;;;8.30;98.90;;;;;;4939987;28;20059;-74
2022/04/02 10:00:57;;;;;;;4.75;1.08;;;7.50;99.90;;;;;;4970233;28;20055;-79
2022/04/02 10:03:45;;;;;;;3.85;0.90;;;7.30;99.80;;;;;;4970904;28;20050;-71
2022/04/02 10:06:26;;;;;;;8.15;1.30;;;7.50;99.90;;;;;;4970549;28;20170;-80
2022/04/02 10:09:10;;;;;;;7.18;1.08;;;7.80;99.90;;;;;;4970236;28;20058;-75
2022/04/02 10:11:59;;;;;;;2.93;1.00;;;7.80;99.90;;;;;;4970746;28;20046;-74
2022/04/02 10:14:28;;;;;;;3.05;1.35;;;7.90;99.90;;;;;;4969103;28;20082;-78
2022/04/02 10:17:05;;;;;;;4.55;1.10;;;8.30;99.90;;;;;;4960917;28;20058;-72
2022/04/02 10:19:39;;;;;;;5.00;1.25;;;8.30;99.90;;;;;;4951075;29;20083;-79
2022/04/02 10:22:10;;;;;;;7.85;1.20;;;9.10;99.90;;;;;;5012011;28;20120;-79
2022/04/02 10:24:47;;;;;;;3.10;0.90;;;8.60;99.90;;;;;;5011904;28;20053;-75
2022/04/02 10:27:36;;;;;;;3.00;1.05;;;8.40;99.90;;;;;;5012086;28;20113;-76
2022/04/02 10:30:06;;;;;;;3.55;1.10;;;8.40;99.90;;;;;;5030807;28;20049;-81
2022/04/02 10:32:48;;;;;;;2.42;0.98;;;8.80;99.90;;;;;;5031531;28;20045;-73
2022/04/02 10:35:14;;;;;;;3.33;1.17;;;8.90;99.90;;;;;;5031397;28;20052;-79
2022/04/02 10:37:54;;;;;;;2.45;0.85;;;8.70;99.90;;;;;;5031194;28;20481;-72
2022/04/02 10:40:22;;;;;;;3.03;0.95;;;8.50;99.90;;;;;;5030466;28;20473;-71
2022/04/02 10:42:58;;;;;;;6.45;1.00;;;8.40;99.90;;;;;;5031097;28;20049;-72
2022/04/02 10:45:28;;;;;;;4.38;1.30;;;8.20;99.90;;;;;;5032526;28;20103;-71
2022/04/02 10:48:09;;;;;;;3.50;1.20;;;8.00;99.60;;;;;;5030951;28;20518;-71
2022/04/02 10:50:37;;;;;;;8.52;1.20;;;7.90;99.90;;;;;;5030530;28;20107;-75
2022/04/02 10:53:04;;;;;;;2.80;0.95;;;7.80;99.30;;;;;;5008062;28;20045;-76
2022/04/02 10:55:30;;;;;;;3.60;0.90;;;7.70;99.90;;;;;;5044189;28;20045;-83
2022/04/02 10:57:59;;;;;;;3.58;0.98;;;7.50;99.90;;;;;;5050990;28;20150;-77
2022/04/02 11:00:30;;;;;;;6.00;1.10;;;7.10;99.90;;;;;;5050374;28;20480;-80
2022/04/02 11:03:06;;;;;;;2.83;0.90;;;7.10;99.90;;;;;;5032415;28;20045;-83
2022/04/02 11:05:37;;;;;;;2.92;0.95;;;7.00;99.90;;;;;;5031640;28;20052;-72
2022/04/02 11:08:10;;;;;;;5.47;1.10;;;7.10;99.90;;;;;;5050673;28;20098;-72
2022/04/02 11:10:37;;;;;;;5.85;1.27;;;7.00;99.90;;;;;;5050283;28;20057;-75
2022/04/02 11:13:06;;;;;;;2.78;0.90;;;7.00;99.90;;;;;;5050252;28;20053;-74
2022/04/02 11:15:40;;;;;;;5.30;1.00;;;6.80;99.90;;;;;;5050324;28;20055;-73
2022/04/02 11:18:17;;;;;;;4.25;0.90;;;6.80;99.90;;;;;;5050479;28;20451;-73
2022/04/02 11:20:44;;;;;;;5.85;1.35;;;6.80;99.90;;;;;;5050520;28;20045;-75
2022/04/02 11:23:24;;;;;;;4.10;0.88;;;7.10;99.90;;;;;;5050279;28;20041;-76
2022/04/02 11:25:54;;;;;;;5.90;1.30;;;7.00;99.90;;;;;;5049952;28;20051;-84
2022/04/02 11:28:24;;;;;;;3.85;1.00;;;7.00;99.90;;;;;;5050468;28;20044;-71
2022/04/02 11:30:53;;;;;;;5.22;1.40;;;6.90;99.90;;;;;;5050341;28;20432;-72
2022/04/02 11:33:20;;;;;;;4.32;1.20;;;6.90;99.90;;;;;;5050052;28;20056;-73
2022/04/02 11:36:06;;;;;;;4.40;0.80;;;6.90;99.90;;;;;;5050529;28;20052;-81
2022/04/02 11:39:11;;;;;;;;;;;6.80;99.90;;;;;;5050882;28;20053;-77
2022/04/02 11:41:44;;;;;;;4.32;1.55;;;6.70;99.80;;;;;;4968956;28;19969;-79
2022/04/02 11:44:14;;;;;;;7.57;1.13;;;6.60;99.90;;;;;;4969120;28;20541;-73
2022/04/02 11:46:54;;;;;;;4.47;1.33;;;6.60;99.90;;;;;;4952646;28;20055;-75
2022/04/02 11:49:27;;;;;;;3.10;1.00;;;6.60;99.90;;;;;;4957832;28;20079;-75
2022/04/02 11:52:03;;;;;;;2.55;1.10;;;6.70;99.90;;;;;;4955498;28;20213;-76
2022/04/02 11:54:29;;;;;;;5.90;1.52;;;6.50;99.90;;;;;;4936563;28;20059;-78
2022/04/02 11:57:09;;;;;;;5.75;1.20;;;6.90;99.90;;;;;;4946647;28;20489;-72
2022/04/02 11:59:36;;;;;;;2.58;1.10;;;6.70;99.90;;;;;;4950740;28;20067;-78
2022/04/02 12:02:03;;;;;;;2.85;1.02;;;6.70;99.90;;;;;;4937633;28;20047;-71
2022/04/02 12:04:29;;;;;;;3.83;1.00;;;6.70;99.90;;;;;;4967580;28;20074;-78
2022/04/02 12:07:05;;;;;;;5.63;1.00;;;6.70;99.90;;;;;;4967987;28;20732;-73
2022/04/02 12:09:33;;;;;;;4.43;1.10;;;6.70;99.60;;;;;;4968441;28;20506;-72
2022/04/02 12:12:05;;;;;;;3.20;0.90;;;6.60;99.20;;;;;;4995998;28;20060;-78
2022/04/02 12:14:33;;;;;;;1.92;0.80;;;6.50;98.60;;;;;;5049200;28;20488;-73
2022/04/02 12:17:01;;;;;;;3.35;1.10;;;6.60;99.90;;;;;;5049793;28;20041;-75
2022/04/02 12:19:42;;;;;;;3.97;1.10;;;6.50;99.20;;;;;;5049360;28;20376;-72
2022/04/02 12:22:23;;;;;;;7.13;1.08;;;6.60;99.50;;;;;;5049589;28;20094;-73
2022/04/02 12:24:50;;;;;;;4.85;0.90;;;6.60;97.90;;;;;;5050052;28;20049;-74
2022/04/02 12:27:21;;;;;;;5.20;1.10;;;6.50;97.60;;;;;;5049385;28;20033;-74
2022/04/02 12:29:50;;;;;;;4.10;0.90;;;7.00;97.50;;;;;;5049497;28;20060;-73
2022/04/02 12:32:55;;;;;;;3.42;1.00;;;7.60;98.80;;;;;;5049369;28;20037;-74
2022/04/02 12:35:26;;;;;;;5.03;1.07;;;7.50;97.80;;;;;;4967864;28;20058;-79
2022/04/02 12:37:54;;;;;;;4.82;0.80;;;7.20;96.40;;;;;;4968514;28;20087;-72
2022/04/02 12:40:24;;;;;;;4.15;1.00;;;7.40;95.90;;;;;;4968288;28;20470;-71
2022/04/02 12:42:52;;;;;;;2.63;0.90;;;7.30;96.10;;;;;;4968273;28;20051;-74
2022/04/02 12:45:26;;;;;;;3.20;0.90;;;7.00;96.20;;;;;;4968255;28;20098;-75
2022/04/02 12:47:58;;;;;;;1.30;0.73;;;7.00;94.30;;;;;;4968384;28;20064;-73
2022/04/02 12:50:25;;;;;;;4.85;1.10;;;7.10;95.90;;;;;;4967835;28;20519;-72
2022/04/02 12:52:51;;;;;;;3.97;1.10;;;7.20;95.30;;;;;;4968109;28;20117;-76
2022/04/02 12:55:19;;;;;;;4.97;1.10;;;7.50;96.00;;;;;;4967895;28;20058;-72
2022/04/02 12:57:57;;;;;;;5.72;1.15;;;7.80;94.80;;;;;;4952169;28;20062;-72
2022/04/02 13:00:41;;;;;;;7.10;0.80;;;8.00;94.30;;;;;;4968235;28;20065;-76
2022/04/02 13:03:07;;;;;;;2.25;0.80;;;7.80;91.40;;;;;;4968207;28;20058;-74
2022/04/02 13:05:45;;;;;;;1.17;0.70;;;7.70;93.20;;;;;;4968026;28;20050;-72
2022/04/02 13:08:28;;;;;;;5.72;1.00;;;7.70;92.90;;;;;;4968253;28;20421;-73
2022/04/02 13:10:58;;;;;;;8.93;1.00;;;7.80;93.40;;;;;;4979627;28;20076;-72
2022/04/02 13:13:39;;;;;;;1.77;0.82;;;7.90;93.90;;;;;;5049370;28;20743;-69